Time;durP1;ratioP1;P1;durP2;ratioP2;P2;SDS_P1;SDS_P2;PMS_P1;PMS_P2;Temp;Humidity;BMP_temperature;BMP_pressure;BME280_temperature;BME280_humidity;BME280_pressure;Samples;Min_cycle;Max_cycle;Signal;HPM_P1;HPM_P2
2023/02/19 00:01:43;;;;;;;3.40;2.70;;;;;;;9.20;67.27;100186.56;10406680;28;20063;-81
2023/02/19 00:06:46;;;;;;;4.30;2.42;;;;;;;9.16;67.46;100203.25;10409955;28;20399;-81
2023/02/19 00:11:48;;;;;;;3.45;2.65;;;;;;;9.15;67.40;100204.22;10412049;28;20041;-82
2023/02/19 00:16:49;;;;;;;4.90;2.50;;;;;;;9.17;67.66;100207.59;10409410;28;20049;-81
2023/02/19 00:21:52;;;;;;;4.07;3.22;;;;;;;9.15;67.94;100183.34;10405802;28;20418;-81
2023/02/19 00:26:54;;;;;;;4.45;2.90;;;;;;;9.15;68.04;100194.63;10409635;28;20048;-81
2023/02/19 00:32:29;;;;;;;3.78;2.97;;;;;;;9.05;68.38;100190.78;10403126;28;20057;-80
2023/02/19 00:37:31;;;;;;;3.50;3.03;;;;;;;9.13;68.20;100188.63;10408290;28;20050;-81
2023/02/19 00:42:33;;;;;;;3.50;2.70;;;;;;;9.12;68.30;100194.75;10413643;28;20057;-81
2023/02/19 00:47:34;;;;;;;3.50;2.70;;;;;;;9.14;67.93;100185.09;10415227;28;20493;-81
2023/02/19 00:52:36;;;;;;;4.00;2.40;;;;;;;9.15;67.97;100183.34;10419691;28;20613;-81
2023/02/19 00:57:38;;;;;;;3.58;2.50;;;;;;;9.14;68.11;100185.09;10409831;28;20143;-82
2023/02/19 01:02:40;;;;;;;3.40;2.30;;;;;;;9.02;68.58;100188.31;10411271;28;20080;-81
2023/02/19 01:07:41;;;;;;;3.47;2.65;;;;;;;8.95;69.17;100179.09;10411487;28;20045;-82
2023/02/19 01:12:43;;;;;;;3.72;2.70;;;;;;;8.62;70.30;100168.56;10417860;28;20068;-81
2023/02/19 01:17:45;;;;;;;3.30;2.85;;;;;;;8.58;70.42;100168.75;10413100;28;20422;-81
2023/02/19 01:22:46;;;;;;;4.93;3.03;;;;;;;8.54;70.76;100160.25;10408346;28;20050;-81
2023/02/19 01:27:48;;;;;;;3.40;2.70;;;;;;;8.69;70.22;100158.66;10408995;28;20131;-81
2023/02/19 01:32:50;;;;;;;3.70;2.65;;;;;;;8.70;70.37;100155.13;10414146;28;20041;-81
2023/02/19 01:37:51;;;;;;;6.05;2.40;;;;;;;8.67;70.61;100150.91;10417890;28;20059;-82
2023/02/19 01:42:54;;;;;;;2.85;2.20;;;;;;;8.66;70.50;100164.03;10412509;28;20059;-81
2023/02/19 01:48:09;;;;;;;3.00;2.15;;;;;;;8.53;70.93;100153.34;10407687;28;20588;-81
2023/02/19 01:53:16;;;;;;;3.17;2.58;;;;;;;8.67;70.65;100140.47;10415126;28;20059;-82
2023/02/19 01:58:18;;;;;;;3.20;2.45;;;;;;;8.67;70.56;100137.88;10420424;28;20045;-81
2023/02/19 02:03:47;;;;;;;3.15;2.42;;;;;;;8.56;71.03;100136.72;10417609;28;20060;-81
2023/02/19 02:14:23;;;;;;;3.90;2.72;;;;;;;8.45;71.40;100128.53;10409834;28;20049;-82
2023/02/19 02:19:46;;;;;;;3.50;2.58;;;;;;;8.47;71.47;100129.31;10406867;28;20615;-81
2023/02/19 02:25:38;;;;;;;3.00;2.20;;;;;;;8.43;71.31;100125.16;10410956;28;20490;-82
2023/02/19 02:30:56;;;;;;;3.15;2.30;;;;;;;8.53;71.05;100123.81;10393836;28;20855;-81
2023/02/19 02:36:06;;;;;;;3.50;1.90;;;;;;;8.63;70.46;100114.63;10412335;28;20052;-82
2023/02/19 02:42:26;;;;;;;2.50;1.70;;;;;;;8.49;70.45;100104.03;10408877;28;20053;-81
2023/02/19 02:47:40;;;;;;;2.55;1.80;;;;;;;8.69;70.18;100103.88;10387567;28;20689;-81
2023/02/19 02:58:01;;;;;;;1.90;1.60;;;;;;;8.68;70.03;100121.31;10393354;28;20060;-82
2023/02/19 03:03:04;;;;;;;2.17;1.52;;;;;;;8.79;69.64;100099.94;10385936;28;20578;-82
2023/02/19 03:08:14;;;;;;;3.47;1.50;;;;;;;8.70;69.61;100082.13;10391391;28;20064;-82
2023/02/19 03:29:45;;;;;;;1.38;1.00;;;;;;;8.59;70.58;100106.13;10393986;28;20542;-82
2023/02/19 03:34:54;;;;;;;1.38;0.90;;;;;;;8.67;70.43;100116.16;10390086;28;20049;-82
2023/02/19 03:39:56;;;;;;;0.90;0.82;;;;;;;8.59;70.74;100116.53;10385641;28;20053;-82
2023/02/19 03:45:13;;;;;;;6.05;1.20;;;;;;;8.57;71.29;100109.72;10400127;28;20053;-82
2023/02/19 03:50:28;;;;;;;1.48;1.02;;;;;;;8.56;71.29;100115.84;10397063;28;20049;-82
2023/02/19 03:55:58;;;;;;;1.10;1.00;;;;;;;8.50;71.47;100096.16;10391440;28;20048;-82
2023/02/19 04:01:18;;;;;;;1.15;1.08;;;;;;;8.39;71.74;100110.59;10393457;28;20061;-81
2023/02/19 04:06:26;;;;;;;2.72;1.33;;;;;;;8.24;72.17;100113.94;10393264;28;20072;-81
2023/02/19 04:11:30;;;;;;;1.40;1.27;;;;;;;8.23;72.28;100118.31;10391611;28;20577;-82
2023/02/19 04:16:35;;;;;;;2.28;1.30;;;;;;;8.21;72.30;100120.16;10393518;28;20136;-82
2023/02/19 04:21:39;;;;;;;3.13;1.35;;;;;;;8.36;72.04;100124.66;10387349;28;20057;-81
2023/02/19 04:26:42;;;;;;;2.20;1.50;;;;;;;8.42;71.46;100133.91;10397809;28;20050;-82
2023/02/19 04:31:44;;;;;;;1.48;1.25;;;;;;;8.48;71.23;100141.44;10401300;28;20089;-82
2023/02/19 04:36:46;;;;;;;2.40;1.45;;;;;;;8.50;71.25;100139.63;10397312;28;20475;-82
2023/02/19 04:41:48;;;;;;;2.10;1.50;;;;;;;8.48;71.33;100136.22;10394145;28;20045;-82
2023/02/19 04:46:49;;;;;;;2.60;1.60;;;;;;;8.45;71.19;100152.00;10393521;28;20087;-82
2023/02/19 04:51:51;;;;;;;2.78;1.40;;;;;;;8.53;70.82;100161.16;10396422;28;20057;-82
2023/02/19 04:56:52;;;;;;;2.22;1.40;;;;;;;8.44;71.12;100171.19;10392553;28;21599;-82
2023/02/19 05:01:56;;;;;;;2.53;1.50;;;;;;;8.51;70.99;100170.81;10396612;28;20065;-82
2023/02/19 05:06:58;;;;;;;2.75;1.50;;;;;;;8.64;70.78;100169.31;10391850;28;20053;-82
2023/02/19 05:11:59;;;;;;;3.42;1.60;;;;;;;8.65;70.24;100191.00;10394051;28;20057;-81
2023/02/19 05:17:01;;;;;;;4.40;1.95;;;;;;;8.56;70.44;100178.41;10400828;28;20430;-82
2023/02/19 05:22:02;;;;;;;5.30;1.90;;;;;;;8.64;69.92;100176.28;10393278;28;20139;-82
2023/02/19 05:27:04;;;;;;;2.85;1.75;;;;;;;8.59;69.75;100179.09;10392327;28;20061;-82
2023/02/19 05:32:06;;;;;;;4.40;2.08;;;;;;;8.50;69.87;100186.53;10393827;28;20868;-82
2023/02/19 05:37:08;;;;;;;5.07;2.20;;;;;;;8.42;70.11;100199.94;10395051;28;20185;-82
2023/02/19 05:42:12;;;;;;;3.95;2.20;;;;;;;8.53;69.62;100192.44;10396344;28;20053;-82
2023/02/19 05:47:14;;;;;;;5.47;2.10;;;;;;;8.63;68.96;100205.88;10394130;28;20057;-82
2023/02/19 05:52:15;;;;;;;4.43;2.30;;;;;;;8.64;68.87;100210.19;10393965;28;20049;-82
2023/02/19 05:57:19;;;;;;;4.20;2.20;;;;;;;8.74;68.82;100216.66;10397772;28;20171;-82
2023/02/19 06:02:20;;;;;;;4.35;2.00;;;;;;;8.81;68.32;100212.84;10394560;28;20136;-82
2023/02/19 06:07:22;;;;;;;5.55;1.90;;;;;;;8.81;68.24;100228.50;10389085;28;20063;-82
2023/02/19 06:12:24;;;;;;;4.35;1.80;;;;;;;8.88;68.24;100231.63;10394340;28;20065;-82
2023/02/19 06:17:25;;;;;;;3.90;2.00;;;;;;;8.92;67.94;100244.44;10396246;28;20053;-82
2023/02/19 06:22:27;;;;;;;4.40;2.22;;;;;;;8.85;67.82;100254.31;10395566;28;20045;-81
2023/02/19 06:27:29;;;;;;;6.13;2.50;;;;;;;8.81;67.63;100258.00;10391648;28;20049;-82
2023/02/19 06:32:30;;;;;;;5.15;2.28;;;;;;;8.97;67.49;100265.97;10394475;28;20483;-81
2023/02/19 06:37:32;;;;;;;4.65;2.20;;;;;;;9.00;67.43;100265.78;10392323;28;20057;-82
2023/02/19 06:42:34;;;;;;;4.75;2.55;;;;;;;9.08;67.32;100275.84;10396706;28;20060;-81
2023/02/19 06:47:36;;;;;;;6.15;2.63;;;;;;;9.02;67.22;100282.22;10391678;28;20056;-82
2023/02/19 06:52:37;;;;;;;6.60;2.63;;;;;;;9.05;67.01;100281.22;10389216;28;20509;-81
2023/02/19 06:57:39;;;;;;;5.80;2.38;;;;;;;9.01;67.29;100282.31;10385678;28;20060;-81
2023/02/19 07:02:41;;;;;;;7.20;2.63;;;;;;;8.93;67.27;100297.47;10395992;28;20057;-82
2023/02/19 07:07:44;;;;;;;9.35;4.53;;;;;;;8.97;67.15;100293.81;10386992;28;20045;-81
2023/02/19 07:12:46;;;;;;;8.02;4.20;;;;;;;9.07;67.13;100305.50;10389214;28;20049;-83
2023/02/19 07:17:48;;;;;;;5.75;2.95;;;;;;;9.10;66.84;100314.00;10381693;28;20502;-82
2023/02/19 07:22:51;;;;;;;6.05;2.80;;;;;;;9.07;66.76;100321.16;10390752;28;20057;-82
2023/02/19 07:27:54;;;;;;;5.70;2.88;;;;;;;9.09;66.23;100337.56;10381550;28;20115;-83
2023/02/19 07:32:57;;;;;;;8.18;3.50;;;;;;;9.11;66.11;100352.25;10383592;28;20045;-82
2023/02/19 07:38:01;;;;;;;7.40;3.90;;;;;;;9.11;66.09;100357.47;10383963;28;20049;-82
2023/02/19 07:43:04;;;;;;;6.28;3.38;;;;;;;9.15;66.07;100371.19;10385355;28;20063;-82
2023/02/19 07:48:07;;;;;;;8.77;4.35;;;;;;;9.22;65.61;100367.41;10381024;28;20187;-82
2023/02/19 07:53:11;;;;;;;9.30;4.70;;;;;;;9.43;65.37;100376.81;10393081;28;20068;-83
2023/02/19 07:58:14;;;;;;;9.70;4.82;;;;;;;9.39;64.82;100370.88;10383320;28;20156;-83
2023/02/19 08:03:17;;;;;;;14.77;6.50;;;;;;;9.44;64.59;100388.94;10388621;28;20054;-82
2023/02/19 08:08:20;;;;;;;9.38;4.97;;;;;;;9.46;64.63;100393.16;10397889;28;20176;-82
2023/02/19 08:13:25;;;;;;;8.98;5.13;;;;;;;9.70;64.12;100398.16;10374273;28;20046;-83
2023/02/19 08:18:32;;;;;;;8.85;5.03;;;;;;;9.67;63.77;100396.53;10382298;28;20120;-82
2023/02/19 08:23:35;;;;;;;10.75;5.22;;;;;;;9.77;63.72;100404.78;10381986;28;20054;-82
2023/02/19 08:28:39;;;;;;;12.98;5.28;;;;;;;9.76;63.65;100408.31;10385207;28;20053;-82
2023/02/19 08:33:42;;;;;;;9.75;5.28;;;;;;;9.82;63.55;100410.63;10387756;28;20636;-83
2023/02/19 08:38:45;;;;;;;14.50;6.10;;;;;;;9.83;63.60;100433.22;10377879;28;20057;-82
2023/02/19 08:43:48;;;;;;;10.52;5.53;;;;;;;9.82;63.83;100429.75;10380326;28;20080;-82
2023/02/19 08:48:52;;;;;;;9.63;4.25;;;;;;;9.90;63.28;100440.69;10383613;28;20052;-82
2023/02/19 08:53:55;;;;;;;9.48;4.28;;;;;;;9.80;63.62;100444.66;10382471;28;20485;-82
2023/02/19 08:58:57;;;;;;;11.85;4.55;;;;;;;9.81;64.23;100456.78;10384010;28;20081;-82
2023/02/19 09:04:00;;;;;;;9.80;4.65;;;;;;;9.63;64.52;100471.53;10388935;28;20510;-82
2023/02/19 09:09:04;;;;;;;12.30;5.00;;;;;;;9.67;64.58;100480.09;10391585;28;20099;-82
2023/02/19 09:14:07;;;;;;;11.07;4.70;;;;;;;9.61;64.70;100496.88;10391101;28;20041;-82
2023/02/19 09:19:10;;;;;;;8.98;4.85;;;;;;;9.56;65.12;100495.41;10393988;28;20767;-82
2023/02/19 09:24:12;;;;;;;11.75;4.80;;;;;;;9.64;64.68;100496.75;10389017;28;20081;-83
2023/02/19 09:29:17;;;;;;;8.65;4.30;;;;;;;9.59;64.75;100495.25;10383195;28;20057;-82
2023/02/19 09:34:20;;;;;;;11.93;4.57;;;;;;;9.53;65.07;100496.41;10380228;28;20055;-82
2023/02/19 09:39:23;;;;;;;9.20;3.83;;;;;;;9.36;64.83;100506.75;10364876;28;20702;-82
2023/02/19 09:44:40;;;;;;;10.60;3.88;;;;;;;9.59;64.42;100511.78;10372460;28;20532;-81
2023/02/19 09:49:50;;;;;;;12.18;4.43;;;;;;;9.54;64.52;100518.97;10381293;28;20148;-82
2023/02/19 09:55:00;;;;;;;18.08;9.35;;;;;;;9.65;64.38;100529.78;10379378;28;20049;-82
2023/02/19 10:00:05;;;;;;;11.32;4.93;;;;;;;9.63;64.26;100544.66;10380752;28;20776;-82
2023/02/19 10:05:15;;;;;;;11.32;5.10;;;;;;;9.63;64.23;100552.50;10342902;28;20057;-82
2023/02/19 10:10:28;;;;;;;14.95;6.22;;;;;;;9.68;64.03;100549.72;10367833;28;20053;-82
2023/02/19 10:15:40;;;;;;;12.00;6.22;;;;;;;9.78;63.15;100555.34;10379829;28;20049;-83
2023/02/19 10:20:42;;;;;;;11.38;5.95;;;;;;;9.91;63.21;100552.09;10374411;28;20053;-82
2023/02/19 10:25:49;;;;;;;14.27;6.90;;;;;;;10.32;62.51;100555.31;10380356;28;20053;-82
2023/02/19 10:30:57;;;;;;;13.68;6.28;;;;;;;10.62;61.86;100564.31;10379800;28;20053;-82
2023/02/19 10:36:35;;;;;;;15.43;6.25;;;;;;;10.79;60.78;100564.28;10378340;28;20050;-83
2023/02/19 10:41:40;;;;;;;14.00;6.25;;;;;;;10.74;60.80;100574.16;10385849;28;20141;-82
2023/02/19 10:46:48;;;;;;;13.10;5.70;;;;;;;11.11;60.50;100584.44;10372532;28;20053;-82
2023/02/19 10:51:52;;;;;;;11.55;5.55;;;;;;;11.34;59.91;100595.53;10377984;28;20115;-82
2023/02/19 10:57:16;;;;;;;11.68;5.40;;;;;;;11.87;57.06;100590.88;10385700;28;20046;-79
2023/02/19 11:02:20;;;;;;;15.55;5.32;;;;;;;12.13;57.76;100600.75;10384028;28;20049;-78
2023/02/19 11:07:25;;;;;;;9.88;5.03;;;;;;;11.76;57.93;100601.09;10380562;28;20492;-79
2023/02/19 11:12:35;;;;;;;11.27;5.07;;;;;;;11.58;57.07;100617.81;10377905;28;20063;-79
2023/02/19 11:17:43;;;;;;;14.30;5.80;;;;;;;11.72;57.78;100629.22;10375570;28;20068;-79
2023/02/19 11:22:50;;;;;;;13.07;5.97;;;;;;;11.59;57.81;100609.88;10369453;28;20146;-79
2023/02/19 11:28:23;;;;;;;15.00;5.72;;;;;;;11.40;58.03;100624.03;10366805;28;20077;-79
2023/02/19 11:33:27;;;;;;;12.85;5.70;;;;;;;11.21;58.49;100622.31;10386422;28;20095;-79
2023/02/19 11:38:34;;;;;;;12.77;6.35;;;;;;;11.26;59.18;100622.09;10367952;28;20132;-79
2023/02/19 11:44:24;;;;;;;14.07;5.85;;;;;;;11.26;58.60;100627.34;10372448;28;20168;-79
2023/02/19 11:49:35;;;;;;;13.82;5.72;;;;;;;11.72;58.85;100631.84;10332889;28;20556;-79
2023/02/19 11:54:50;;;;;;;9.90;5.55;;;;;;;11.57;57.36;100630.06;10377960;28;20041;-79
2023/02/19 12:00:12;;;;;;;12.00;5.55;;;;;;;11.59;58.59;100619.50;10378518;28;20061;-79
2023/02/19 12:05:30;;;;;;;15.20;6.30;;;;;;;11.79;58.09;100637.63;10365059;28;20057;-79
2023/02/19 12:11:03;;;;;;;10.80;6.35;;;;;;;11.58;58.75;100636.16;10367900;28;20057;-79
2023/02/19 12:16:30;;;;;;;17.75;7.20;;;;;;;11.37;59.32;100630.25;10381700;28;20046;-79
2023/02/19 12:21:59;;;;;;;12.70;6.78;;;;;;;11.29;59.68;100633.25;10383955;28;20053;-79
2023/02/19 12:27:38;;;;;;;13.13;6.20;;;;;;;11.55;59.27;100641.53;10375766;28;20052;-79
2023/02/19 12:33:02;;;;;;;12.55;5.82;;;;;;;11.43;58.79;100629.94;10391207;28;20136;-79
2023/02/19 12:38:26;;;;;;;12.13;5.43;;;;;;;11.41;58.23;100610.84;10374249;28;20064;-79
2023/02/19 12:43:31;;;;;;;9.40;4.53;;;;;;;11.69;58.12;100611.06;10398137;28;20529;-79
2023/02/19 12:48:38;;;;;;;7.82;4.30;;;;;;;11.82;57.66;100599.00;10378896;28;20132;-79
2023/02/19 12:53:51;;;;;;;7.53;3.78;;;;;;;11.55;57.09;100612.72;10377265;28;20038;-79
2023/02/19 12:59:23;;;;;;;7.75;3.75;;;;;;;11.45;57.23;100622.84;10374335;28;20053;-80
2023/02/19 13:04:40;;;;;;;6.22;3.30;;;;;;;11.55;57.50;100612.72;10375600;28;20588;-80
2023/02/19 13:09:52;;;;;;;6.38;3.10;;;;;;;11.53;57.32;100627.66;10383714;28;20049;-79
2023/02/19 13:15:06;;;;;;;6.30;3.13;;;;;;;11.44;57.54;100631.63;10383681;28;20060;-79
2023/02/19 13:20:23;;;;;;;4.65;2.90;;;;;;;10.93;58.05;100642.94;10382048;28;20050;-79
2023/02/19 13:25:44;;;;;;;6.18;2.83;;;;;;;10.53;58.24;100643.22;10382970;28;20049;-79
2023/02/19 13:31:09;;;;;;;5.28;2.92;;;;;;;10.56;59.03;100635.22;10381477;28;20057;-79
2023/02/19 13:36:17;;;;;;;5.03;2.58;;;;;;;10.96;58.59;100642.81;10382101;28;20781;-79
2023/02/19 13:41:33;;;;;;;4.63;2.50;;;;;;;11.08;58.39;100644.84;10386533;28;20049;-79
2023/02/19 13:46:41;;;;;;;16.10;5.05;;;;;;;11.14;58.10;100652.38;10383762;28;20049;-79
2023/02/19 13:51:49;;;;;;;5.57;2.90;;;;;;;11.01;57.90;100653.88;10382658;28;20049;-79
2023/02/19 13:57:28;;;;;;;7.63;2.83;;;;;;;10.94;58.18;100657.72;10377890;28;20041;-79
2023/02/19 14:02:32;;;;;;;4.53;2.67;;;;;;;10.96;58.44;100671.59;10393971;28;20068;-79
2023/02/19 14:07:34;;;;;;;6.80;2.80;;;;;;;11.03;58.09;100661.66;10380363;28;21048;-79
2023/02/19 14:12:36;;;;;;;8.40;3.20;;;;;;;11.05;58.27;100671.16;10393842;28;20447;-79
2023/02/19 14:17:38;;;;;;;6.97;2.88;;;;;;;10.86;59.55;100678.19;10384412;28;20042;-79
2023/02/19 14:22:47;;;;;;;5.70;3.33;;;;;;;10.73;60.93;100687.56;10382767;28;20134;-79
2023/02/19 14:27:52;;;;;;;8.63;4.28;;;;;;;10.61;61.61;100680.31;10390085;28;20037;-80
2023/02/19 14:32:55;;;;;;;38.05;14.02;;;;;;;10.67;61.29;100674.78;10383483;28;20049;-80
2023/02/19 14:38:53;;;;;;;4.95;2.80;;;;;;;10.61;61.43;100687.28;10381760;28;20128;-80
2023/02/19 14:43:57;;;;;;;5.75;2.58;;;;;;;10.54;61.13;100686.75;10368172;28;20054;-80
2023/02/19 14:49:37;;;;;;;3.40;1.98;;;;;;;10.31;60.88;100679.16;10383464;28;20161;-80
2023/02/19 14:54:49;;;;;;;4.47;2.22;;;;;;;10.34;60.63;100692.06;10374999;28;20045;-80
2023/02/19 14:59:58;;;;;;;4.53;1.90;;;;;;;10.33;60.64;100685.16;10381340;28;20141;-79
2023/02/19 15:04:59;;;;;;;4.47;2.03;;;;;;;10.33;60.36;100711.28;10381597;28;20864;-80
2023/02/19 15:10:04;;;;;;;5.05;1.90;;;;;;;10.13;60.43;100713.97;10387021;28;20049;-79
2023/02/19 15:15:36;;;;;;;3.50;1.73;;;;;;;9.78;59.91;100730.38;10376102;28;20725;-80
2023/02/19 15:20:38;;;;;;;4.32;2.20;;;;;;;9.92;60.03;100735.84;10381224;28;20609;-81
2023/02/19 15:25:42;;;;;;;3.90;2.10;;;;;;;9.94;60.48;100739.22;10375461;28;20056;-80
2023/02/19 15:30:43;;;;;;;7.45;2.85;;;;;;;9.70;60.18;100740.31;10387997;28;20081;-80
2023/02/19 15:35:56;;;;;;;5.35;2.50;;;;;;;9.78;60.33;100722.53;10376136;28;20060;-80
2023/02/19 15:41:01;;;;;;;482.92;113.82;;;;;;;9.76;60.32;100720.00;10385552;28;20049;-80
2023/02/19 15:46:16;;;;;;;8.57;3.42;;;;;;;9.77;60.59;100716.44;10376738;28;20076;-80
2023/02/19 15:51:28;;;;;;;5.03;2.58;;;;;;;9.86;60.43;100704.75;10384404;28;20060;-80
2023/02/19 15:56:35;;;;;;;5.00;2.80;;;;;;;9.74;60.80;100693.09;10372064;28;20049;-80
2023/02/19 16:01:39;;;;;;;4.93;2.92;;;;;;;9.76;60.97;100691.25;10381337;28;20045;-80
2023/02/19 16:07:24;;;;;;;7.32;3.13;;;;;;;9.77;60.59;100682.50;10382293;28;20534;-80
2023/02/19 16:12:27;;;;;;;5.75;3.20;;;;;;;9.52;60.83;100685.31;10400338;28;20405;-80
2023/02/19 16:23:32;;;;;;;8.48;2.65;;;;;;;9.17;61.12;100685.97;10392922;28;20046;-80
2023/02/19 16:28:39;;;;;;;8.23;2.95;;;;;;;8.95;61.35;100706.06;10390799;28;20054;-80
2023/02/19 16:33:50;;;;;;;8.02;3.83;;;;;;;8.88;61.46;100706.34;10395121;28;20140;-80
2023/02/19 16:39:07;;;;;;;5.60;2.92;;;;;;;8.72;61.16;100708.72;10391078;28;20514;-80
2023/02/19 16:44:34;;;;;;;11.35;3.65;;;;;;;8.67;61.69;100711.50;10403357;28;20088;-81
2023/02/19 16:49:36;;;;;;;6.25;3.08;;;;;;;8.66;61.85;100714.19;10389589;28;20598;-79
2023/02/19 16:54:39;;;;;;;10.85;3.50;;;;;;;8.67;61.68;100715.88;10394033;28;20131;-80
2023/02/19 16:59:43;;;;;;;10.18;3.63;;;;;;;8.62;61.80;100738.69;10396357;28;20053;-80
2023/02/19 17:04:48;;;;;;;99.00;21.30;;;;;;;8.42;62.56;100749.88;10386811;28;20049;-79
2023/02/19 17:09:50;;;;;;;9.55;3.80;;;;;;;8.45;62.82;100754.97;10391311;28;20596;-80
2023/02/19 17:15:20;;;;;;;159.50;26.10;;;;;;;8.49;62.81;100769.59;10394089;28;20050;-80
2023/02/19 17:20:29;;;;;;;69.43;12.48;;;;;;;8.55;63.10;100781.53;10382127;28;20068;-80
2023/02/19 17:25:32;;;;;;;11.50;5.75;;;;;;;8.58;63.62;100782.28;10373479;28;20080;-80
2023/02/19 17:30:35;;;;;;;9.38;3.78;;;;;;;8.65;63.37;100786.34;10391544;28;20041;-79
2023/02/19 17:35:45;;;;;;;11.68;3.80;;;;;;;8.58;63.57;100779.69;10388464;28;20095;-79
2023/02/19 17:40:47;;;;;;;22.13;6.07;;;;;;;8.55;63.39;100789.34;10388356;28;20426;-79
2023/02/19 17:45:51;;;;;;;10.50;4.07;;;;;;;8.72;62.90;100802.59;10384530;28;20083;-79
2023/02/19 17:50:54;;;;;;;16.73;5.13;;;;;;;8.73;62.71;100827.75;10384505;28;20192;-79
2023/02/19 17:55:55;;;;;;;13.35;4.40;;;;;;;8.83;62.70;100840.41;10381380;28;20462;-79
2023/02/19 18:01:00;;;;;;;8.90;4.70;;;;;;;8.94;62.48;100844.34;10397392;28;20073;-80
2023/02/19 18:06:02;;;;;;;6.63;3.30;;;;;;;8.82;62.96;100846.53;10387837;28;20049;-80
2023/02/19 18:11:05;;;;;;;6.72;3.47;;;;;;;8.80;63.21;100847.50;10390823;28;20398;-79
2023/02/19 18:16:08;;;;;;;6.95;3.88;;;;;;;8.80;63.38;100856.19;10387636;28;20489;-79
2023/02/19 18:21:13;;;;;;;9.80;4.00;;;;;;;8.79;63.37;100843.22;10397532;28;20068;-79
2023/02/19 18:26:18;;;;;;;9.60;3.72;;;;;;;8.82;63.51;100837.84;10387692;28;20053;-80
2023/02/19 18:31:24;;;;;;;6.78;3.60;;;;;;;8.77;63.75;100850.25;10387837;28;20168;-79
2023/02/19 18:36:27;;;;;;;8.70;3.70;;;;;;;8.76;63.88;100857.22;10382617;28;20050;-80
2023/02/19 18:41:30;;;;;;;8.05;3.75;;;;;;;8.78;63.92;100860.59;10383335;28;20049;-79
2023/02/19 18:46:35;;;;;;;8.23;4.30;;;;;;;8.79;63.52;100858.84;10386440;28;20132;-79
2023/02/19 18:51:37;;;;;;;8.35;3.92;;;;;;;8.76;63.61;100858.97;10397280;28;20053;-79
2023/02/19 18:56:48;;;;;;;7.90;4.20;;;;;;;8.77;63.48;100860.66;10390775;28;20042;-79
2023/02/19 19:01:54;;;;;;;10.60;5.68;;;;;;;8.61;63.77;100865.59;10394802;28;20514;-79
2023/02/19 19:06:56;;;;;;;12.23;7.53;;;;;;;8.56;63.61;100861.47;10385958;28;20279;-79
2023/02/19 19:12:01;;;;;;;8.80;5.57;;;;;;;8.60;63.21;100866.50;10389397;28;20057;-79
2023/02/19 19:17:04;;;;;;;17.30;10.38;;;;;;;8.76;63.22;100870.25;10385743;28;20045;-80
2023/02/19 19:22:13;;;;;;;10.07;5.65;;;;;;;8.84;63.12;100869.94;10390448;28;20144;-79
2023/02/19 19:27:18;;;;;;;9.40;5.97;;;;;;;8.67;63.65;100865.34;10384975;28;20049;-79
2023/02/19 19:32:21;;;;;;;9.10;6.28;;;;;;;8.69;63.52;100870.50;10378402;28;20050;-79
2023/02/19 19:37:25;;;;;;;9.57;5.97;;;;;;;8.55;63.68;100880.59;10379436;28;20060;-79
2023/02/19 19:42:29;;;;;;;8.45;7.03;;;;;;;8.62;63.48;100882.09;10383481;28;20057;-79
2023/02/19 19:47:30;;;;;;;11.65;6.30;;;;;;;8.56;63.65;100875.34;10386444;28;20084;-80
2023/02/19 19:52:32;;;;;;;10.60;6.40;;;;;;;8.66;63.54;100881.06;10384844;28;20052;-80
2023/02/19 19:57:34;;;;;;;10.10;6.40;;;;;;;8.59;63.60;100876.97;10392219;28;20139;-80
2023/02/19 20:02:36;;;;;;;8.98;6.07;;;;;;;8.55;63.22;100888.41;10391529;28;20065;-80
2023/02/19 20:07:38;;;;;;;10.55;6.78;;;;;;;8.59;63.18;100885.66;10398824;28;20108;-80
2023/02/19 20:12:41;;;;;;;9.57;6.53;;;;;;;8.60;62.99;100904.75;10393630;28;20060;-80
2023/02/19 20:17:43;;;;;;;10.82;7.13;;;;;;;8.56;62.68;100906.63;10401331;28;20533;-80
2023/02/19 20:22:44;;;;;;;12.23;7.55;;;;;;;8.46;62.81;100920.06;10392219;28;20068;-80
2023/02/19 20:27:47;;;;;;;13.52;7.53;;;;;;;8.43;62.61;100920.13;10394929;28;20059;-80
2023/02/19 20:32:50;;;;;;;10.00;7.45;;;;;;;8.41;62.09;100914.13;10387274;28;20498;-79
2023/02/19 20:37:53;;;;;;;11.05;7.90;;;;;;;8.40;62.37;100921.13;10384067;28;21039;-80
2023/02/19 20:42:56;;;;;;;13.93;9.32;;;;;;;8.33;62.10;100921.38;10375684;28;20139;-81
2023/02/19 20:47:58;;;;;;;12.95;9.02;;;;;;;8.19;62.19;100907.97;10380547;28;20064;-81
2023/02/19 20:53:00;;;;;;;11.35;8.65;;;;;;;8.20;61.93;100922.72;10377183;28;20049;-80
2023/02/19 20:58:03;;;;;;;48.42;30.20;;;;;;;8.15;62.16;100922.00;10384230;28;20056;-81
2023/02/19 21:03:07;;;;;;;36.30;22.90;;;;;;;8.09;62.03;100927.41;10387604;28;20057;-81
2023/02/19 21:08:10;;;;;;;11.65;8.93;;;;;;;8.16;61.92;100941.97;10386384;28;20107;-81
2023/02/19 21:13:15;;;;;;;13.05;9.52;;;;;;;8.20;61.47;100949.59;10389135;28;20521;-81
2023/02/19 21:18:18;;;;;;;12.00;8.63;;;;;;;8.29;61.25;100951.06;10384660;28;20423;-81
2023/02/19 21:23:20;;;;;;;12.00;8.20;;;;;;;8.23;61.03;100959.94;10390399;28;20063;-81
2023/02/19 21:28:23;;;;;;;14.93;10.00;;;;;;;8.18;61.00;100968.81;10394463;28;20053;-80
2023/02/19 21:33:25;;;;;;;12.07;9.07;;;;;;;8.05;60.95;100960.53;10393183;28;20920;-80
2023/02/19 21:38:26;;;;;;;9.77;8.30;;;;;;;8.16;60.89;100968.03;10394459;28;20064;-80
2023/02/19 21:43:30;;;;;;;11.20;8.55;;;;;;;8.09;61.28;100974.28;10393652;28;20471;-80
2023/02/19 21:48:32;;;;;;;11.02;8.05;;;;;;;8.11;61.18;100985.53;10393849;28;20132;-80
2023/02/19 21:53:34;;;;;;;11.88;8.18;;;;;;;8.14;61.07;100986.28;10395399;28;20115;-81
2023/02/19 21:58:36;;;;;;;11.25;8.80;;;;;;;8.11;61.14;100983.81;10395538;28;20064;-80
2023/02/19 22:03:37;;;;;;;11.25;8.40;;;;;;;8.01;61.19;100987.56;10393051;28;20053;-80
2023/02/19 22:08:39;;;;;;;11.98;8.38;;;;;;;7.96;61.66;100987.72;10400539;28;20406;-80
2023/02/19 22:13:41;;;;;;;10.75;8.48;;;;;;;7.92;61.52;100999.13;10400975;28;20498;-80
2023/02/19 22:18:48;;;;;;;9.93;7.80;;;;;;;7.89;61.48;100990.59;10399698;28;20092;-81
2023/02/19 22:23:52;;;;;;;10.60;7.70;;;;;;;7.89;61.41;100985.38;10391440;28;20052;-80
2023/02/19 22:28:54;;;;;;;9.45;7.40;;;;;;;7.87;61.37;100985.44;10392588;28;20055;-80
2023/02/19 22:33:56;;;;;;;9.77;7.70;;;;;;;7.93;61.39;100994.78;10392939;28;20049;-81
2023/02/19 22:38:59;;;;;;;12.40;8.23;;;;;;;7.84;61.14;101008.94;10392533;28;20049;-80
2023/02/19 22:44:01;;;;;;;11.63;8.10;;;;;;;7.84;61.02;101000.28;10388314;28;20057;-80
2023/02/19 22:49:04;;;;;;;8.80;6.25;;;;;;;7.89;60.84;100995.78;10391779;28;20053;-81
2023/02/19 22:54:06;;;;;;;8.88;6.65;;;;;;;7.91;60.95;100992.25;10391153;28;20301;-80
2023/02/19 22:59:08;;;;;;;8.80;6.82;;;;;;;7.95;60.64;101001.66;10390251;28;20121;-80
2023/02/19 23:04:10;;;;;;;8.15;6.38;;;;;;;7.96;60.54;101008.56;10390309;28;20540;-81
2023/02/19 23:09:21;;;;;;;8.57;6.18;;;;;;;7.91;60.66;101012.22;10390694;28;20120;-81
2023/02/19 23:14:23;;;;;;;8.10;6.47;;;;;;;8.02;60.58;101015.31;10392806;28;20152;-81
2023/02/19 23:19:25;;;;;;;9.50;6.90;;;;;;;7.92;60.47;101016.50;10392289;28;20053;-81
2023/02/19 23:24:28;;;;;;;8.90;6.60;;;;;;;7.77;60.79;101014.41;10392600;28;20065;-81
2023/02/19 23:29:32;;;;;;;9.30;6.03;;;;;;;7.76;60.73;100999.66;10385620;28;20076;-81
2023/02/19 23:34:34;;;;;;;8.27;6.07;;;;;;;7.55;61.06;100995.97;10395069;28;20143;-81
2023/02/19 23:39:36;;;;;;;9.65;6.82;;;;;;;7.33;61.39;100996.66;10388814;28;20059;-81
2023/02/19 23:44:38;;;;;;;10.60;6.82;;;;;;;7.25;61.48;100988.22;10392238;28;21004;-81
2023/02/19 23:49:40;;;;;;;9.45;6.35;;;;;;;7.15;61.51;100992.84;10394922;28;20049;-81
2023/02/19 23:54:42;;;;;;;8.88;6.63;;;;;;;7.03;61.94;100982.81;10403405;28;20053;-81
2023/02/19 23:59:46;;;;;;;11.65;6.55;;;;;;;7.00;62.01;100982.88;10394664;28;20049;-80
